createdAt,value
2018-07-07T00:00:38.447Z,56.67
2018-07-07T00:01:38.383Z,56.96
2018-07-07T00:02:38.326Z,56.48
2018-07-07T00:03:38.264Z,56.76
2018-07-07T00:04:38.201Z,57.63
2018-07-07T00:05:38.139Z,57.72
2018-07-07T00:06:38.081Z,57.53
2018-07-07T00:07:38.015Z,57.53
2018-07-07T00:08:37.955Z,57.92
2018-07-07T00:09:37.897Z,58.11
2018-07-07T00:10:37.831Z,57.92
2018-07-07T00:11:37.770Z,58.11
2018-07-07T00:12:37.712Z,58.30
2018-07-07T00:13:37.646Z,58.94
2018-07-07T00:14:37.588Z,58.78
2018-07-07T00:15:37.528Z,58.78
2018-07-07T00:16:37.464Z,59.36
2018-07-07T00:17:37.402Z,58.97
2018-07-07T00:18:37.343Z,59.06
2018-07-07T00:19:37.277Z,58.78
2018-07-07T00:20:37.216Z,58.97
2018-07-07T00:21:37.160Z,59.36
2018-07-07T00:22:37.094Z,59.93
2018-07-07T00:23:37.029Z,59.64
2018-07-07T00:24:36.979Z,59.64
2018-07-07T00:25:36.911Z,59.64
2018-07-07T00:26:36.845Z,60.70
2018-07-07T00:27:36.786Z,60.00
2018-07-07T00:28:36.725Z,60.47
2018-07-07T00:29:36.666Z,60.57
2018-07-07T00:30:36.600Z,60.76
2018-07-07T00:31:36.538Z,60.38
2018-07-07T00:32:36.473Z,61.05
2018-07-07T00:33:36.413Z,61.24
2018-07-07T00:34:36.354Z,60.76
2018-07-07T00:35:36.292Z,61.05
2018-07-07T00:36:36.230Z,61.24
2018-07-07T00:37:36.168Z,61.63
2018-07-07T00:38:36.107Z,61.91
2018-07-07T00:39:36.042Z,61.72
2018-07-07T00:40:35.983Z,62.10
2018-07-07T00:41:35.923Z,62.10
2018-07-07T00:42:35.854Z,62.87
2018-07-07T00:43:35.796Z,62.68
2018-07-07T00:44:35.738Z,62.87
2018-07-07T00:45:35.669Z,62.87
2018-07-07T00:46:35.612Z,62.87
2018-07-07T00:47:35.564Z,62.87
2018-07-07T00:48:35.489Z,63.64
2018-07-07T00:49:35.426Z,63.45
2018-07-07T00:50:35.361Z,63.64
2018-07-07T00:51:35.308Z,63.92
2018-07-07T00:52:35.240Z,63.54
2018-07-07T00:53:35.178Z,64.31
2018-07-07T00:54:35.117Z,64.22
2018-07-07T00:55:35.057Z,64.40
2018-07-07T00:56:34.992Z,64.79
2018-07-07T00:57:34.929Z,64.59
2018-07-07T00:58:34.870Z,64.79
2018-07-07T00:59:34.807Z,64.40
2018-07-07T01:00:34.748Z,64.76
2018-07-07T01:01:34.683Z,65.17
2018-07-07T01:02:34.620Z,65.55
2018-07-07T01:03:34.561Z,65.33
2018-07-07T01:04:34.496Z,65.81
2018-07-07T01:05:34.433Z,65.52
2018-07-07T01:06:34.374Z,66.09
2018-07-07T01:07:34.312Z,66.29
2018-07-07T01:08:34.251Z,66.09
2018-07-07T01:09:34.187Z,66.29
2018-07-07T01:10:34.122Z,66.86
2018-07-07T01:11:34.062Z,66.29
2018-07-07T01:12:34.002Z,67.15
2018-07-07T01:13:33.942Z,67.05
2018-07-07T01:14:33.875Z,67.34
2018-07-07T01:15:33.814Z,67.34
2018-07-07T01:16:33.755Z,67.34
2018-07-07T01:17:33.688Z,67.72
2018-07-07T01:18:33.629Z,67.44
2018-07-07T01:19:33.571Z,67.54
2018-07-07T01:20:33.506Z,67.54
2018-07-07T01:21:33.440Z,67.63
2018-07-07T01:22:33.377Z,68.21
2018-07-07T01:23:33.315Z,68.49
2018-07-07T01:24:33.251Z,68.40
2018-07-07T01:25:33.191Z,68.40
2018-07-07T01:26:33.132Z,68.46
2018-07-07T01:27:33.077Z,68.59
2018-07-07T01:28:33.004Z,69.03
2018-07-07T01:29:32.942Z,69.32
2018-07-07T01:30:32.886Z,69.13
2018-07-07T01:31:32.819Z,69.23
2018-07-07T01:32:32.759Z,69.42
2018-07-07T01:33:32.695Z,70.18
2018-07-07T01:34:32.630Z,69.99
2018-07-07T01:35:32.571Z,69.89
2018-07-07T01:36:32.508Z,70.09
2018-07-07T01:37:32.444Z,70.76
2018-07-07T01:38:32.387Z,70.56
2018-07-07T01:39:32.324Z,71.04
2018-07-07T01:40:32.261Z,70.95
2018-07-07T01:41:32.196Z,70.95
2018-07-07T01:42:32.132Z,71.14
2018-07-07T01:43:32.072Z,71.62
2018-07-07T01:44:32.014Z,71.62
2018-07-07T01:45:31.947Z,71.14
2018-07-07T01:46:31.882Z,71.33
2018-07-07T01:47:31.823Z,71.33
2018-07-07T01:48:31.758Z,70.66
2018-07-07T01:49:31.697Z,71.33
2018-07-07T01:50:31.636Z,70.85
2018-07-07T01:51:31.572Z,71.04
2018-07-07T01:52:31.512Z,70.95
2018-07-07T01:53:31.453Z,71.33
2018-07-07T01:54:31.384Z,71.71
2018-07-07T01:55:31.318Z,72.00
2018-07-07T01:56:31.260Z,71.42
2018-07-07T01:57:31.198Z,71.81
2018-07-07T01:58:31.138Z,72.09
2018-07-07T01:59:31.075Z,71.81
2018-07-07T02:00:31.044Z,71.91
2018-07-07T02:01:30.953Z,72.25
2018-07-07T02:02:30.883Z,72.16
2018-07-07T02:03:30.824Z,72.29
2018-07-07T02:04:30.771Z,72.29
2018-07-07T02:05:30.700Z,72.34
2018-07-07T02:06:30.637Z,72.63
2018-07-07T02:07:30.572Z,72.34
2018-07-07T02:08:30.509Z,72.58
2018-07-07T02:09:30.448Z,72.92
2018-07-07T02:10:30.489Z,73.02
2018-07-07T02:11:30.324Z,73.11
2018-07-07T02:12:30.261Z,72.92
2018-07-07T02:13:30.198Z,73.40
2018-07-07T02:14:30.139Z,72.92
2018-07-07T02:15:30.072Z,73.11
2018-07-07T02:16:30.012Z,73.11
2018-07-07T02:17:29.947Z,73.50
2018-07-07T02:18:29.894Z,73.79
2018-07-07T02:19:29.819Z,73.40
2018-07-07T02:20:29.754Z,73.40
2018-07-07T02:21:29.694Z,73.59
2018-07-07T02:22:29.634Z,73.59
2018-07-07T02:23:29.569Z,73.69
2018-07-07T02:24:29.517Z,73.79
2018-07-07T02:25:29.445Z,73.97
2018-07-07T02:26:29.387Z,74.45
2018-07-07T02:27:29.316Z,74.26
2018-07-07T02:28:29.257Z,74.07
2018-07-07T02:29:29.201Z,74.45
2018-07-07T02:30:29.133Z,74.65
2018-07-07T02:31:29.072Z,74.93
2018-07-07T02:32:29.005Z,75.22
2018-07-07T02:33:28.942Z,75.18
2018-07-07T02:34:28.883Z,75.27
2018-07-07T02:35:28.823Z,75.18
2018-07-07T02:36:28.758Z,75.56
2018-07-07T02:37:28.693Z,75.95
2018-07-07T02:38:28.628Z,75.60
2018-07-07T02:39:28.567Z,76.08
2018-07-07T02:40:28.504Z,76.18
2018-07-07T02:41:28.443Z,75.79
2018-07-07T02:42:28.379Z,76.18
2018-07-07T02:43:28.318Z,76.08
2018-07-07T02:44:28.260Z,75.60
2018-07-07T02:45:28.191Z,75.51
2018-07-07T02:46:28.146Z,75.51
2018-07-07T02:47:28.063Z,76.27
2018-07-07T02:48:28.001Z,75.70
2018-07-07T02:49:27.940Z,75.98
2018-07-07T02:50:27.876Z,75.89
2018-07-07T02:51:27.817Z,75.60
2018-07-07T02:52:27.748Z,75.95
2018-07-07T02:53:27.687Z,76.71
2018-07-07T02:54:27.625Z,76.90
2018-07-07T02:55:27.562Z,76.42
2018-07-07T02:56:27.500Z,76.52
2018-07-07T02:57:27.437Z,76.62
2018-07-07T02:58:27.373Z,77.38
2018-07-07T02:59:27.310Z,77.38
2018-07-07T03:00:27.246Z,77.67
2018-07-07T03:01:27.184Z,77.48
2018-07-07T03:02:27.128Z,77.48
2018-07-07T03:03:27.205Z,77.76
2018-07-07T03:04:26.991Z,77.86
2018-07-07T03:05:26.931Z,77.48
2018-07-07T03:06:26.874Z,77.67
2018-07-07T03:07:26.813Z,78.14
2018-07-07T03:08:26.744Z,77.95
2018-07-07T03:09:26.681Z,78.05
2018-07-07T03:10:26.617Z,78.24
2018-07-07T03:11:26.552Z,78.63
2018-07-07T03:12:26.493Z,78.63
2018-07-07T03:13:26.427Z,78.63
2018-07-07T03:14:26.366Z,78.53
2018-07-07T03:15:26.304Z,79.20
2018-07-07T03:16:26.241Z,78.81
2018-07-07T03:17:26.177Z,78.97
2018-07-07T03:18:26.113Z,79.10
2018-07-07T03:19:26.050Z,79.10
2018-07-07T03:20:25.990Z,79.20
2018-07-07T03:21:25.928Z,79.10
2018-07-07T03:22:25.861Z,78.81
2018-07-07T03:23:25.800Z,79.29
2018-07-07T03:24:25.741Z,79.29
2018-07-07T03:25:25.671Z,79.39
2018-07-07T03:26:25.609Z,79.10
2018-07-07T03:27:25.547Z,79.49
2018-07-07T03:28:25.483Z,79.29
2018-07-07T03:29:25.439Z,79.20
2018-07-07T03:30:25.358Z,79.68
2018-07-07T03:31:25.293Z,79.39
2018-07-07T03:32:25.230Z,79.96
2018-07-07T03:33:25.167Z,80.06
2018-07-07T03:34:25.106Z,79.77
2018-07-07T03:35:25.043Z,79.77
2018-07-07T03:36:24.978Z,80.06
2018-07-07T03:37:24.913Z,79.68
2018-07-07T03:38:24.855Z,80.35
2018-07-07T03:39:24.792Z,80.16
2018-07-07T03:40:24.736Z,80.35
2018-07-07T03:41:24.665Z,80.44
2018-07-07T03:42:24.599Z,80.44
2018-07-07T03:43:24.542Z,80.54
2018-07-07T03:44:24.475Z,80.16
2018-07-07T03:45:24.407Z,80.35
2018-07-07T03:46:24.347Z,80.16
2018-07-07T03:47:24.293Z,80.63
2018-07-07T03:48:24.223Z,80.73
2018-07-07T03:49:24.261Z,80.25
2018-07-07T03:50:24.094Z,80.44
2018-07-07T03:51:24.037Z,80.44
2018-07-07T03:52:23.970Z,80.44
2018-07-07T03:53:23.908Z,80.73
2018-07-07T03:54:23.841Z,80.82
2018-07-07T03:55:23.779Z,80.92
2018-07-07T03:56:23.718Z,80.92
2018-07-07T03:57:23.656Z,80.82
2018-07-07T03:58:23.590Z,80.82
2018-07-07T03:59:23.529Z,80.73
2018-07-07T04:00:23.467Z,80.54
2018-07-07T04:01:23.402Z,81.59
2018-07-07T04:02:23.340Z,80.92
2018-07-07T04:03:23.281Z,81.30
2018-07-07T04:04:23.213Z,81.30
2018-07-07T04:05:23.148Z,81.59
2018-07-07T04:06:23.087Z,81.68
2018-07-07T04:07:23.044Z,81.59
2018-07-07T04:08:22.961Z,81.40
2018-07-07T04:09:22.896Z,81.88
2018-07-07T04:10:22.837Z,81.88
2018-07-07T04:11:22.772Z,81.97
2018-07-07T04:12:22.713Z,81.97
2018-07-07T04:13:22.650Z,81.88
2018-07-07T04:14:22.582Z,82.07
2018-07-07T04:15:22.517Z,82.17
2018-07-07T04:16:22.459Z,82.07
2018-07-07T04:17:22.392Z,82.45
2018-07-07T04:18:22.330Z,82.17
2018-07-07T04:19:22.269Z,81.78
2018-07-07T04:20:22.207Z,82.17
2018-07-07T04:21:22.143Z,82.45
2018-07-07T04:22:22.081Z,82.35
2018-07-07T04:23:22.016Z,81.97
2018-07-07T04:24:21.961Z,82.01
2018-07-07T04:25:21.890Z,82.11
2018-07-07T04:26:21.821Z,82.11
2018-07-07T04:27:21.761Z,81.73
2018-07-07T04:28:21.697Z,81.54
2018-07-07T04:29:21.638Z,81.82
2018-07-07T04:30:21.583Z,81.63
2018-07-07T04:31:21.513Z,82.30
2018-07-07T04:32:21.449Z,82.35
2018-07-07T04:33:21.386Z,82.26
2018-07-07T04:34:21.322Z,82.83
2018-07-07T04:35:21.259Z,82.97
2018-07-07T04:36:21.195Z,82.97
2018-07-07T04:37:21.132Z,82.54
2018-07-07T04:38:21.072Z,82.93
2018-07-07T04:39:21.010Z,82.97
2018-07-07T04:40:20.945Z,82.59
2018-07-07T04:41:20.881Z,82.78
2018-07-07T04:42:20.821Z,82.83
2018-07-07T04:43:20.760Z,82.54
2018-07-07T04:44:20.696Z,83.16
2018-07-07T04:45:20.633Z,82.68
2018-07-07T04:46:20.575Z,82.20
2018-07-07T04:47:20.518Z,82.40
2018-07-07T04:48:20.443Z,82.97
2018-07-07T04:49:20.380Z,82.97
2018-07-07T04:50:20.319Z,82.49
2018-07-07T04:51:20.259Z,82.49
2018-07-07T04:52:20.223Z,82.59
2018-07-07T04:53:20.127Z,82.49
2018-07-07T04:54:20.064Z,82.40
2018-07-07T04:55:20.000Z,82.59
2018-07-07T04:56:19.939Z,82.53
2018-07-07T04:57:19.879Z,82.63
2018-07-07T04:58:19.811Z,82.15
2018-07-07T04:59:19.751Z,82.15
2018-07-07T05:00:19.687Z,81.57
2018-07-07T05:01:19.623Z,81.77
2018-07-07T05:02:19.564Z,82.15
2018-07-07T05:03:19.501Z,81.86
2018-07-07T05:04:19.438Z,82.15
2018-07-07T05:05:19.377Z,82.34
2018-07-07T05:06:19.313Z,82.30
2018-07-07T05:07:19.242Z,82.40
2018-07-07T05:08:19.192Z,82.40
2018-07-07T05:09:19.124Z,83.16
2018-07-07T05:10:19.061Z,82.78
2018-07-07T05:11:18.996Z,82.97
2018-07-07T05:12:18.945Z,82.59
2018-07-07T05:13:18.874Z,82.59
2018-07-07T05:14:18.809Z,83.16
2018-07-07T05:15:18.746Z,83.26
2018-07-07T05:16:18.693Z,82.97
2018-07-07T05:17:18.707Z,83.36
2018-07-07T05:18:18.558Z,83.73
2018-07-07T05:19:18.506Z,83.83
2018-07-07T05:20:18.435Z,83.64
2018-07-07T05:21:18.372Z,84.22
2018-07-07T05:22:18.309Z,83.83
2018-07-07T05:23:18.249Z,84.02
2018-07-07T05:24:18.186Z,83.93
2018-07-07T05:25:18.121Z,83.54
2018-07-07T05:26:18.058Z,83.83
2018-07-07T05:27:17.995Z,83.83
2018-07-07T05:28:18.792Z,83.93
2018-07-07T05:29:17.871Z,83.73
2018-07-07T05:30:17.812Z,83.49
2018-07-07T05:31:17.745Z,83.05
2018-07-07T05:32:17.681Z,82.57
2018-07-07T05:33:17.617Z,82.76
2018-07-07T05:34:17.557Z,82.67
2018-07-07T05:35:17.497Z,82.57
2018-07-07T05:36:17.431Z,82.67
2018-07-07T05:37:17.376Z,82.57
2018-07-07T05:38:17.315Z,82.57
2018-07-07T05:39:17.241Z,81.71
2018-07-07T05:40:17.180Z,82.57
2018-07-07T05:41:17.117Z,82.67
2018-07-07T05:42:17.059Z,82.67
2018-07-07T05:43:16.998Z,82.57
2018-07-07T05:44:16.932Z,82.57
2018-07-07T05:45:16.867Z,82.57
2018-07-07T05:46:16.808Z,81.90
2018-07-07T05:47:16.746Z,82.29
2018-07-07T05:48:16.683Z,82.38
2018-07-07T05:49:16.620Z,82.76
2018-07-07T05:50:16.557Z,82.09
2018-07-07T05:51:16.495Z,81.75
2018-07-07T05:52:16.435Z,81.66
2018-07-07T05:53:16.372Z,81.85
2018-07-07T05:54:16.307Z,81.46
2018-07-07T05:55:16.245Z,81.27
2018-07-07T05:56:16.186Z,80.93
2018-07-07T05:57:16.170Z,80.74
2018-07-07T05:58:16.064Z,80.79
2018-07-07T05:59:15.999Z,81.18
2018-07-07T06:00:15.938Z,81.18
2018-07-07T06:01:15.875Z,81.27
2018-07-07T06:02:15.814Z,81.27
2018-07-07T06:03:15.752Z,81.08
2018-07-07T06:04:15.693Z,81.27
2018-07-07T06:05:15.632Z,81.46
2018-07-07T06:06:15.559Z,80.89
2018-07-07T06:07:15.506Z,80.83
2018-07-07T06:08:15.443Z,80.83
2018-07-07T06:09:15.381Z,80.93
2018-07-07T06:10:15.328Z,81.02
2018-07-07T06:11:15.259Z,80.16
2018-07-07T06:12:15.199Z,80.35
2018-07-07T06:13:15.133Z,80.45
2018-07-07T06:14:15.070Z,80.01
2018-07-07T06:15:15.011Z,79.63
2018-07-07T06:16:14.949Z,79.53
2018-07-07T06:17:14.888Z,79.82
2018-07-07T06:18:14.874Z,79.44
2018-07-07T06:19:14.762Z,79.53
2018-07-07T06:20:14.700Z,79.88
2018-07-07T06:21:14.642Z,79.78
2018-07-07T06:22:14.581Z,79.78
2018-07-07T06:23:14.517Z,79.78
2018-07-07T06:24:14.456Z,79.78
2018-07-07T06:25:14.393Z,79.49
2018-07-07T06:26:14.331Z,79.88
2018-07-07T06:27:14.271Z,79.39
2018-07-07T06:28:14.209Z,79.59
2018-07-07T06:29:14.147Z,79.68
2018-07-07T06:30:14.091Z,79.21
2018-07-07T06:31:14.023Z,79.01
2018-07-07T06:32:13.965Z,79.30
2018-07-07T06:33:13.900Z,78.86
2018-07-07T06:34:13.840Z,79.01
2018-07-07T06:35:13.778Z,78.96
2018-07-07T06:36:13.723Z,78.86
2018-07-07T06:37:13.660Z,78.00
2018-07-07T06:38:13.592Z,78.03
2018-07-07T06:39:13.536Z,77.08
2018-07-07T06:40:13.469Z,76.88
2018-07-07T06:41:13.408Z,77.26
2018-07-07T06:42:13.351Z,77.33
2018-07-07T06:43:13.286Z,77.80
2018-07-07T06:44:13.226Z,78.09
2018-07-07T06:45:13.172Z,78.03
2018-07-07T06:46:13.100Z,76.88
2018-07-07T06:47:13.042Z,77.08
2018-07-07T06:48:12.986Z,76.40
2018-07-07T06:49:12.919Z,76.15
2018-07-07T06:50:12.858Z,75.67
2018-07-07T06:51:12.798Z,74.81
2018-07-07T06:52:12.733Z,75.00
2018-07-07T06:53:12.676Z,74.52
2018-07-07T06:54:12.617Z,74.90
2018-07-07T06:55:12.557Z,75.29
2018-07-07T06:56:12.495Z,75.48
2018-07-07T06:57:12.435Z,75.35
2018-07-07T06:58:12.366Z,74.87
2018-07-07T06:59:12.308Z,75.20
2018-07-07T07:00:12.247Z,74.87
2018-07-07T07:01:12.186Z,74.62
2018-07-07T07:02:12.128Z,74.13
2018-07-07T07:03:12.068Z,74.04
2018-07-07T07:04:12.006Z,73.94
2018-07-07T07:05:11.944Z,73.94
2018-07-07T07:06:11.885Z,73.56
2018-07-07T07:07:11.823Z,73.75
2018-07-07T07:08:11.764Z,72.64
2018-07-07T07:09:11.700Z,73.02
2018-07-07T07:10:11.646Z,72.92
2018-07-07T07:11:11.579Z,72.73
2018-07-07T07:12:11.518Z,72.25
2018-07-07T07:13:11.462Z,72.34
2018-07-07T07:14:11.398Z,73.08
2018-07-07T07:15:11.340Z,72.79
2018-07-07T07:16:11.282Z,73.08
2018-07-07T07:17:11.216Z,72.99
2018-07-07T07:18:11.151Z,72.54
2018-07-07T07:19:11.097Z,72.34
2018-07-07T07:20:11.033Z,72.54
2018-07-07T07:21:10.975Z,72.16
2018-07-07T07:22:10.913Z,72.31
2018-07-07T07:23:10.851Z,72.60
2018-07-07T07:24:10.791Z,72.41
2018-07-07T07:25:10.730Z,72.50
2018-07-07T07:26:10.764Z,72.50
2018-07-07T07:27:10.610Z,72.22
2018-07-07T07:28:10.550Z,72.12
2018-07-07T07:29:10.490Z,72.50
2018-07-07T07:30:10.425Z,72.22
2018-07-07T07:31:10.362Z,72.25
2018-07-07T07:32:10.322Z,71.77
2018-07-07T07:33:10.331Z,71.58
2018-07-07T07:34:10.186Z,71.29
2018-07-07T07:35:10.125Z,71.39
2018-07-07T07:36:10.062Z,71.48
2018-07-07T07:37:09.999Z,71.10
2018-07-07T07:38:09.943Z,71.19
2018-07-07T07:39:09.883Z,70.46
2018-07-07T07:40:09.822Z,69.89
2018-07-07T07:41:09.759Z,70.07
2018-07-07T07:42:09.698Z,70.17
2018-07-07T07:43:09.645Z,70.07
2018-07-07T07:44:09.596Z,70.14
2018-07-07T07:45:09.512Z,70.07
2018-07-07T07:46:09.461Z,70.37
2018-07-07T07:47:09.405Z,69.89
2018-07-07T07:48:09.337Z,69.69
2018-07-07T07:49:09.277Z,69.21
2018-07-07T07:50:09.222Z,68.76
2018-07-07T07:51:09.151Z,67.80
2018-07-07T07:52:09.096Z,68.09
2018-07-07T07:53:09.040Z,68.15
2018-07-07T07:54:08.969Z,68.19
2018-07-07T07:55:08.910Z,67.99
2018-07-07T07:56:08.851Z,67.51
2018-07-07T07:57:08.788Z,67.51
2018-07-07T07:58:08.733Z,67.71
2018-07-07T07:59:08.677Z,66.55
2018-07-07T08:00:08.617Z,66.74
2018-07-07T08:01:08.553Z,67.03
2018-07-07T08:02:08.490Z,67.03
2018-07-07T08:03:08.433Z,67.13
2018-07-07T08:04:08.385Z,66.65
2018-07-07T08:05:08.318Z,66.65
2018-07-07T08:06:08.252Z,66.07
2018-07-07T08:07:08.193Z,66.39
2018-07-07T08:08:08.132Z,66.01
2018-07-07T08:09:08.070Z,65.78
2018-07-07T08:10:08.015Z,65.91
2018-07-07T08:11:07.960Z,65.81
2018-07-07T08:12:07.896Z,66.46
2018-07-07T08:13:07.832Z,66.65
2018-07-07T08:14:07.820Z,67.03
2018-07-07T08:15:07.712Z,67.03
2018-07-07T08:16:07.659Z,67.00
2018-07-07T08:17:07.590Z,67.68
2018-07-07T08:18:07.533Z,67.19
2018-07-07T08:19:07.475Z,67.38
2018-07-07T08:20:07.421Z,67.35
2018-07-07T08:21:07.362Z,67.29
2018-07-07T08:22:07.293Z,67.25
2018-07-07T08:23:07.234Z,67.45
2018-07-07T08:24:07.177Z,67.64
2018-07-07T08:25:07.112Z,67.54
2018-07-07T08:26:07.059Z,67.93
2018-07-07T08:27:06.992Z,67.54
2018-07-07T08:28:06.932Z,67.93
2018-07-07T08:29:06.875Z,67.29
2018-07-07T08:30:06.813Z,67.58
2018-07-07T08:31:06.756Z,67.03
2018-07-07T08:32:06.725Z,67.13
2018-07-07T08:33:06.633Z,66.36
2018-07-07T08:34:06.576Z,65.88
2018-07-07T08:35:06.512Z,66.07
2018-07-07T08:36:06.451Z,66.74
2018-07-07T08:37:06.388Z,66.17
2018-07-07T08:38:06.331Z,65.97
2018-07-07T08:39:06.276Z,65.69
2018-07-07T08:40:06.212Z,65.11
2018-07-07T08:41:06.148Z,65.24
2018-07-07T08:42:06.150Z,64.66
2018-07-07T08:43:06.034Z,63.99
2018-07-07T08:44:05.972Z,63.99
2018-07-07T08:45:05.915Z,63.15
2018-07-07T08:46:05.845Z,63.15
2018-07-07T08:47:05.793Z,62.77
2018-07-07T08:48:05.730Z,62.29
2018-07-07T08:49:05.666Z,62.29
2018-07-07T08:50:05.620Z,62.19
2018-07-07T08:51:05.547Z,62.38
2018-07-07T08:52:05.504Z,61.71
2018-07-07T08:53:05.433Z,61.52
2018-07-07T08:54:05.371Z,61.22
2018-07-07T08:55:05.314Z,61.32
2018-07-07T08:56:05.254Z,60.75
2018-07-07T08:57:12.833Z,61.07
2018-07-07T08:58:59.522Z,60.58
2018-07-07T08:59:59.436Z,60.58
2018-07-07T09:00:59.371Z,60.58
2018-07-07T09:01:59.323Z,60.77
2018-07-07T09:02:59.253Z,60.87
2018-07-07T09:03:59.192Z,60.10
2018-07-07T09:04:59.137Z,59.88
2018-07-07T09:05:59.081Z,60.07
2018-07-07T09:06:59.039Z,59.88
2018-07-07T09:07:58.961Z,60.07
2018-07-07T09:08:58.901Z,59.94
2018-07-07T09:09:58.836Z,59.94
2018-07-07T09:10:58.784Z,60.17
2018-07-07T09:11:58.716Z,59.85
2018-07-07T09:12:58.668Z,59.66
2018-07-07T09:13:58.605Z,59.20
2018-07-07T09:14:58.550Z,59.11
2018-07-07T09:15:58.482Z,58.63
2018-07-07T09:16:58.436Z,58.92
2018-07-07T09:17:58.368Z,58.44
2018-07-07T09:18:58.314Z,58.15
2018-07-07T09:19:58.250Z,58.15
2018-07-07T09:20:58.190Z,57.67
2018-07-07T09:21:58.160Z,57.98
2018-07-07T09:22:58.062Z,57.21
2018-07-07T09:23:58.011Z,57.12
2018-07-07T09:24:57.950Z,56.92
2018-07-07T09:25:57.889Z,56.92
2018-07-07T09:26:57.829Z,56.54
2018-07-07T09:27:57.773Z,56.73
2018-07-07T09:28:57.726Z,56.54
2018-07-07T09:29:57.649Z,56.05
2018-07-07T09:30:57.597Z,55.77
2018-07-07T09:31:57.542Z,55.38
2018-07-07T09:32:57.474Z,55.29
2018-07-07T09:33:57.453Z,55.48
2018-07-07T09:34:57.356Z,55.29
2018-07-07T09:35:57.410Z,55.19
2018-07-07T09:36:57.236Z,54.71
2018-07-07T09:37:57.181Z,54.52
2018-07-07T09:38:57.124Z,54.80
2018-07-07T09:39:57.056Z,54.71
2018-07-07T09:40:56.998Z,54.90
2018-07-07T09:41:56.939Z,55.09
2018-07-07T09:42:56.877Z,54.61
2018-07-07T09:43:56.839Z,53.96
2018-07-07T09:44:56.765Z,53.29
2018-07-07T09:45:56.705Z,53.48
2018-07-07T09:46:56.645Z,53.00
2018-07-07T09:47:56.586Z,52.71
2018-07-07T09:48:56.532Z,53.19
2018-07-07T09:49:56.463Z,52.81
2018-07-07T09:50:56.410Z,53.09
2018-07-07T09:51:56.349Z,53.19
2018-07-07T09:52:56.297Z,53.09
2018-07-07T09:53:56.230Z,53.09
2018-07-07T09:54:56.167Z,52.52
2018-07-07T09:55:56.112Z,52.61
2018-07-07T09:56:56.059Z,52.23
2018-07-07T09:57:55.998Z,52.04
2018-07-07T09:58:55.936Z,51.58
2018-07-07T09:59:55.875Z,51.17
2018-07-07T10:00:55.814Z,50.88
2018-07-07T10:01:55.788Z,51.00
2018-07-07T10:02:55.707Z,50.23
2018-07-07T10:03:55.635Z,50.71
2018-07-07T10:04:55.586Z,50.13
2018-07-07T10:05:55.528Z,50.13
2018-07-07T10:06:55.462Z,50.23
2018-07-07T10:07:55.406Z,49.94
2018-07-07T10:08:55.344Z,50.13
2018-07-07T10:09:55.289Z,49.94
2018-07-07T10:10:55.227Z,50.04
2018-07-07T10:11:55.164Z,50.13
2018-07-07T10:12:55.107Z,49.94
2018-07-07T10:13:55.049Z,49.75
2018-07-07T10:14:54.993Z,49.65
2018-07-07T10:15:54.930Z,49.55
2018-07-07T10:16:54.874Z,49.55
2018-07-07T10:17:54.815Z,49.19
2018-07-07T10:18:54.756Z,48.79
2018-07-07T10:19:54.702Z,48.88
2018-07-07T10:20:54.634Z,48.71
2018-07-07T10:21:54.582Z,48.52
2018-07-07T10:22:54.526Z,48.52
2018-07-07T10:23:54.463Z,48.52
2018-07-07T10:24:54.401Z,48.52
2018-07-07T10:25:54.342Z,48.52
2018-07-07T10:26:54.277Z,48.13
2018-07-07T10:27:54.224Z,48.33
2018-07-07T10:28:54.171Z,47.55
2018-07-07T10:29:54.109Z,47.45
2018-07-07T10:30:54.059Z,47.27
2018-07-07T10:33:16.078Z,46.97
2018-07-07T10:34:15.905Z,46.69
2018-07-07T10:36:10.191Z,46.11
2018-07-07T10:37:10.095Z,46.08
2018-07-07T10:39:03.977Z,45.72
2018-07-07T10:40:03.571Z,45.62
2018-07-07T10:42:05.456Z,46.11
2018-07-07T10:45:18.460Z,46.01
2018-07-07T10:46:17.766Z,46.01
2018-07-07T10:48:11.096Z,46.03
2018-07-07T10:49:10.985Z,46.13
2018-07-07T10:51:05.283Z,45.65
2018-07-07T10:52:13.824Z,45.65
2018-07-07T10:54:07.146Z,46.03
2018-07-07T10:54:59.408Z,46.03
2018-07-07T10:56:54.329Z,45.55
2018-07-07T10:57:53.622Z,45.26
2018-07-07T10:59:46.928Z,45.18
2018-07-07T11:00:46.852Z,45.00
2018-07-07T11:02:40.218Z,45.38
2018-07-07T11:03:40.065Z,45.18
2018-07-07T11:05:33.401Z,45.17
2018-07-07T11:06:33.276Z,45.48
2018-07-07T11:07:33.222Z,45.00
2018-07-07T11:08:33.158Z,45.00
2018-07-07T11:09:33.109Z,45.18
2018-07-07T11:10:33.048Z,45.38
2018-07-07T11:11:32.995Z,45.01
2018-07-07T11:12:32.931Z,45.11
2018-07-07T11:13:32.878Z,44.82
2018-07-07T11:14:32.817Z,44.82
2018-07-07T11:15:32.760Z,44.63
2018-07-07T11:16:32.704Z,44.63
2018-07-07T11:17:32.653Z,44.53
2018-07-07T11:18:32.597Z,44.43
2018-07-07T11:19:32.536Z,44.26
2018-07-07T11:20:33.537Z,44.36
2018-07-07T11:21:41.240Z,44.36
2018-07-07T11:23:26.743Z,44.07
2018-07-07T11:24:26.648Z,43.88
2018-07-07T11:26:20.973Z,43.68
2018-07-07T11:27:20.883Z,43.61
2018-07-07T11:29:15.325Z,42.83
2018-07-07T11:30:15.240Z,42.83
2018-07-07T11:32:08.669Z,42.28
2018-07-07T11:33:08.480Z,42.08
2018-07-07T11:35:02.792Z,41.77
2018-07-07T11:36:02.711Z,41.97
2018-07-07T11:37:02.699Z,41.89
2018-07-07T11:38:02.606Z,41.89
2018-07-07T11:39:02.578Z,41.79
2018-07-07T11:40:02.505Z,40.84
2018-07-07T11:41:02.475Z,41.42
2018-07-07T11:42:10.096Z,41.04
2018-07-07T11:43:56.326Z,40.94
2018-07-07T11:44:55.678Z,40.48
2018-07-07T11:46:49.605Z,40.67
2018-07-07T11:47:48.925Z,40.09
2018-07-07T11:48:48.873Z,40.19
2018-07-07T11:49:48.820Z,39.90
2018-07-07T11:50:48.776Z,39.53
2018-07-07T11:51:48.732Z,39.04
2018-07-07T11:52:48.673Z,38.95
2018-07-07T11:53:48.635Z,38.68
2018-07-07T11:54:48.580Z,38.29
2018-07-07T11:55:48.532Z,38.19
2018-07-07T11:56:48.490Z,38.19
2018-07-07T11:57:48.443Z,37.92
2018-07-07T11:58:48.403Z,37.82
2018-07-07T11:59:48.393Z,37.73
2018-07-07T12:00:48.299Z,37.63
2018-07-07T12:01:48.257Z,37.35
2018-07-07T12:02:48.212Z,37.07
2018-07-07T12:03:48.170Z,36.89
2018-07-07T12:04:48.182Z,36.60
2018-07-07T12:05:48.072Z,36.02
2018-07-07T12:06:48.028Z,35.82
2018-07-07T12:07:47.982Z,35.80
2018-07-07T12:08:47.940Z,36.00
2018-07-07T12:09:47.903Z,35.32
2018-07-07T12:10:47.856Z,35.61
2018-07-07T12:11:47.830Z,35.24
2018-07-07T12:12:47.757Z,34.66
2018-07-07T12:13:47.717Z,34.17
2018-07-07T12:14:47.668Z,34.09
2018-07-07T12:15:47.628Z,33.70
2018-07-07T12:16:47.579Z,32.81
2018-07-07T12:17:47.544Z,33.11
2018-07-07T12:18:47.489Z,32.82
2018-07-07T12:19:47.444Z,32.54
2018-07-07T12:20:47.398Z,32.55
2018-07-07T12:21:47.359Z,32.34
2018-07-07T12:22:47.311Z,32.34
2018-07-07T12:23:47.271Z,31.95
2018-07-07T12:24:47.246Z,31.97
2018-07-07T12:25:47.180Z,31.85
2018-07-07T12:26:47.134Z,31.68
2018-07-07T12:27:47.094Z,31.57
2018-07-07T12:28:47.060Z,31.18
2018-07-07T12:29:47.007Z,31.29
2018-07-07T12:30:46.958Z,31.19
2018-07-07T12:31:46.907Z,31.21
2018-07-07T12:32:46.886Z,31.01
2018-07-07T12:33:46.818Z,30.91
2018-07-07T12:34:46.780Z,30.91
2018-07-07T12:35:46.740Z,30.52
2018-07-07T12:36:46.765Z,30.83
2018-07-07T12:37:46.647Z,30.26
2018-07-07T12:38:46.607Z,29.97
2018-07-07T12:39:46.557Z,29.66
2018-07-07T12:40:46.552Z,29.96
2018-07-07T12:41:46.474Z,29.94
2018-07-07T12:42:46.428Z,29.76
2018-07-07T12:43:46.390Z,29.47
2018-07-07T12:44:46.366Z,29.28
2018-07-07T12:45:46.332Z,29.18
2018-07-07T12:46:46.256Z,29.00
2018-07-07T12:47:46.212Z,28.82
2018-07-07T12:48:46.169Z,28.53
2018-07-07T12:49:46.135Z,28.72
2018-07-07T12:50:46.084Z,28.63
2018-07-07T12:51:46.040Z,28.72
2018-07-07T12:52:45.996Z,28.25
2018-07-07T12:53:45.951Z,27.68
2018-07-07T12:54:45.908Z,27.68
2018-07-07T12:55:45.870Z,27.89
2018-07-07T12:56:45.825Z,27.79
2018-07-07T12:57:45.781Z,27.41
2018-07-07T12:58:45.737Z,27.50
2018-07-07T12:59:45.701Z,27.79
2018-07-07T13:00:45.658Z,27.30
2018-07-07T13:01:45.622Z,27.02
2018-07-07T13:02:45.570Z,26.73
2018-07-07T13:03:45.525Z,26.72
2018-07-07T13:04:45.486Z,26.81
2018-07-07T13:05:45.440Z,26.72
2018-07-07T13:06:45.400Z,26.23
2018-07-07T13:07:45.372Z,26.31
2018-07-07T13:08:45.348Z,26.12
2018-07-07T13:09:45.289Z,26.41
2018-07-07T13:10:45.231Z,26.21
2018-07-07T13:11:45.195Z,26.03